Terminal Aerodrome Forecast
Issued by NWS

Home | Current Version | Previous Version | Text Only | Print | Product List | Glossary On
Versions: 1 2 3 4 5 6 7 8 9 10 11 12 13 14 15 16 17
000
FTUS43 KEAX 281200 AAA
TAFMKC
TAF AMD
KMKC 281218Z 2812/2912 10007KT 6SM -TSRA BR BKN045CB
      TEMPO 2812/2813 2SM -TSRA BKN025CB
     FM281700 14010KT P6SM VCTS SCT035CB BKN180
     FM282100 18012G22KT P6SM VCTS BKN035CB
      TEMPO 2823/2903 19008KT 6SM -TSRA BR BKN030CB
     FM290400 18007KT P6SM BKN040=

USA.gov is the U.S. government's official web portal to all federal, state and local government web resources and services.